createdAt,value
2018-12-15T00:00:24.695Z,938.2
2018-12-15T00:01:25.001Z,938.2
2018-12-15T00:02:24.878Z,938.2
2018-12-15T00:03:24.790Z,938.2
2018-12-15T00:04:24.688Z,938.3
2018-12-15T00:05:24.677Z,938.2
2018-12-15T00:06:24.565Z,938.1
2018-12-15T00:07:24.462Z,938.2
2018-12-15T00:08:24.362Z,938.1
2018-12-15T00:09:24.287Z,938
2018-12-15T00:10:24.176Z,938.1
2018-12-15T00:11:24.459Z,938.2
2018-12-15T00:12:24.348Z,938.2
2018-12-15T00:13:24.248Z,938.2
2018-12-15T00:14:24.162Z,938.2
2018-12-15T00:15:24.045Z,938.2
2018-12-15T00:16:23.941Z,938.2
2018-12-15T00:17:23.816Z,938.1
2018-12-15T00:18:23.703Z,938.2
2018-12-15T00:19:23.656Z,938.3
2018-12-15T00:20:23.541Z,938.2
2018-12-15T00:21:23.920Z,938.2
2018-12-15T00:22:23.808Z,938.2
2018-12-15T00:23:23.702Z,938.2
2018-12-15T00:24:23.605Z,938.3
2018-12-15T00:25:23.537Z,938.3
2018-12-15T00:26:23.424Z,938.3
2018-12-15T00:27:23.317Z,938.3
2018-12-15T00:28:23.205Z,938.3
2018-12-15T00:29:23.094Z,938.3
2018-12-15T00:30:23.006Z,938.4
2018-12-15T00:31:23.319Z,938.3
2018-12-15T00:32:23.056Z,938.4
2018-12-15T00:33:22.762Z,938.4
2018-12-15T00:34:22.491Z,938.3
2018-12-15T00:35:22.212Z,938.3
2018-12-15T00:36:25.021Z,938.4
2018-12-15T00:37:24.980Z,938.2
2018-12-15T00:38:24.693Z,938.4
2018-12-15T00:39:24.416Z,938.5
2018-12-15T00:40:24.138Z,938.5
2018-12-15T00:41:24.440Z,938.4
2018-12-15T00:42:24.318Z,938.4
2018-12-15T00:43:24.182Z,938.4
2018-12-15T00:44:24.056Z,938.3
2018-12-15T00:45:23.962Z,938.5
2018-12-15T00:46:23.853Z,938.4
2018-12-15T00:47:23.745Z,938.5
2018-12-15T00:48:23.623Z,938.3
2018-12-15T00:49:23.502Z,938.5
2018-12-15T00:50:23.438Z,937.4
2018-12-15T00:51:23.789Z,938.5
2018-12-15T00:52:23.674Z,938.5
2018-12-15T00:53:23.573Z,938.4
2018-12-15T00:54:23.469Z,938.4
2018-12-15T00:55:23.351Z,938.3
2018-12-15T00:56:23.247Z,938.5
2018-12-15T00:57:23.145Z,938.5
2018-12-15T00:58:23.032Z,938.6
2018-12-15T00:59:22.917Z,938.4
2018-12-15T01:00:22.812Z,938.6
2018-12-15T01:01:23.116Z,938.5
2018-12-15T01:02:23.034Z,938.6
2018-12-15T01:03:22.923Z,938.6
2018-12-15T01:04:22.822Z,938.6
2018-12-15T01:05:22.707Z,938.4
2018-12-15T01:06:22.583Z,938.5
2018-12-15T01:07:22.469Z,938.6
2018-12-15T01:08:22.387Z,938.6
2018-12-15T01:09:22.279Z,938.7
2018-12-15T01:10:22.169Z,938.7
2018-12-15T01:11:22.454Z,938.6
2018-12-15T01:12:22.398Z,938.7
2018-12-15T01:13:22.294Z,938.7
2018-12-15T01:14:22.189Z,938.8
2018-12-15T01:15:22.090Z,938.7
2018-12-15T01:16:24.871Z,938.7
2018-12-15T01:17:24.743Z,937.2
2018-12-15T01:18:24.639Z,938.7
2018-12-15T01:19:24.523Z,938.7
2018-12-15T01:20:24.403Z,938.7
2018-12-15T01:21:24.722Z,938.7
2018-12-15T01:22:24.616Z,938.8
2018-12-15T01:23:24.536Z,938.7
2018-12-15T01:24:24.440Z,938.8
2018-12-15T01:25:24.326Z,938.7
2018-12-15T01:26:24.198Z,938.8
2018-12-15T01:27:24.074Z,938.7
2018-12-15T01:28:23.962Z,938.8
2018-12-15T01:29:23.853Z,938.8
2018-12-15T01:30:23.772Z,938.8
2018-12-15T01:31:24.314Z,938.7
2018-12-15T01:32:24.195Z,938.9
2018-12-15T01:33:24.084Z,938.9
2018-12-15T01:34:23.996Z,938.8
2018-12-15T01:35:23.886Z,938.8
2018-12-15T01:36:23.778Z,938.8
2018-12-15T01:37:23.671Z,938.9
2018-12-15T01:38:23.588Z,938.9
2018-12-15T01:39:23.481Z,938.9
2018-12-15T01:40:23.378Z,938.9
2018-12-15T01:41:26.501Z,938.9
2018-12-15T01:42:26.386Z,938.9
2018-12-15T01:43:26.291Z,938.9
2018-12-15T01:44:26.160Z,938.9
2018-12-15T01:45:26.072Z,938.8
2018-12-15T01:46:25.960Z,938.9
2018-12-15T01:47:27.971Z,938.9
2018-12-15T01:48:27.856Z,938.9
2018-12-15T01:49:27.751Z,938.9
2018-12-15T01:50:27.656Z,938.9
2018-12-15T01:51:27.958Z,938.9
2018-12-15T01:52:27.840Z,939
2018-12-15T01:53:27.732Z,938.8
2018-12-15T01:54:27.628Z,938.9
2018-12-15T01:55:27.553Z,938.8
2018-12-15T01:56:27.463Z,938.9
2018-12-15T01:57:27.349Z,938.7
2018-12-15T01:58:27.234Z,938.9
2018-12-15T01:59:27.122Z,938.9
2018-12-15T02:00:26.996Z,938.9
2018-12-15T02:01:27.336Z,938.9
2018-12-15T02:02:27.221Z,938.9
2018-12-15T02:03:27.115Z,938.9
2018-12-15T02:04:27.001Z,939
2018-12-15T02:05:26.890Z,938.8
2018-12-15T02:06:26.779Z,938.9
2018-12-15T02:07:26.694Z,938.7
2018-12-15T02:08:26.563Z,939
2018-12-15T02:09:26.463Z,938.9
2018-12-15T02:10:26.356Z,939
2018-12-15T02:11:26.676Z,938.9
2018-12-15T02:12:26.409Z,939
2018-12-15T02:13:26.155Z,939
2018-12-15T02:14:25.887Z,939
2018-12-15T02:15:28.243Z,938.8
2018-12-15T02:16:27.967Z,938.9
2018-12-15T02:17:34.419Z,938.9
2018-12-15T02:18:34.150Z,939
2018-12-15T02:19:33.869Z,938.8
2018-12-15T02:20:33.584Z,938.9
2018-12-15T02:21:33.905Z,938.9
2018-12-15T02:22:33.800Z,938.9
2018-12-15T02:23:33.701Z,938.9
2018-12-15T02:24:33.588Z,938.9
2018-12-15T02:25:33.489Z,938.8
2018-12-15T02:26:33.360Z,939
2018-12-15T02:27:33.237Z,939
2018-12-15T02:28:33.131Z,939
2018-12-15T02:29:33.005Z,939
2018-12-15T02:30:32.901Z,939
2018-12-15T02:31:33.200Z,938.8
2018-12-15T02:32:33.096Z,939
2018-12-15T02:33:32.983Z,939.1
2018-12-15T02:34:32.913Z,938.9
2018-12-15T02:35:32.810Z,939
2018-12-15T02:36:32.691Z,939.1
2018-12-15T02:37:32.819Z,939.1
2018-12-15T02:38:32.713Z,939.1
2018-12-15T02:39:32.613Z,939
2018-12-15T02:40:32.518Z,939.1
2018-12-15T02:41:32.829Z,939
2018-12-15T02:42:32.727Z,939.2
2018-12-15T02:43:32.615Z,939.1
2018-12-15T02:44:32.529Z,939.1
2018-12-15T02:45:32.438Z,939.1
2018-12-15T02:46:32.349Z,939.1
2018-12-15T02:47:32.241Z,939.1
2018-12-15T02:48:32.137Z,939.1
2018-12-15T02:49:32.273Z,939.1
2018-12-15T02:50:32.175Z,939.2
2018-12-15T02:51:32.488Z,939.2
2018-12-15T02:52:32.386Z,939.1
2018-12-15T02:53:32.277Z,939.2
2018-12-15T02:54:32.195Z,939.2
2018-12-15T02:55:32.124Z,939.1
2018-12-15T02:56:32.050Z,937.8
2018-12-15T02:57:31.953Z,939.1
2018-12-15T02:58:31.848Z,939
2018-12-15T02:59:31.755Z,939
2018-12-15T03:00:31.667Z,937.3
2018-12-15T03:01:31.997Z,939.1
2018-12-15T03:02:31.897Z,939.3
2018-12-15T03:03:31.808Z,939.2
2018-12-15T03:04:31.712Z,939.2
2018-12-15T03:05:31.611Z,939.2
2018-12-15T03:06:31.529Z,939.2
2018-12-15T03:07:31.536Z,939.2
2018-12-15T03:08:31.425Z,939.3
2018-12-15T03:09:31.320Z,939.3
2018-12-15T03:10:31.214Z,939
2018-12-15T03:11:31.570Z,939.3
2018-12-15T03:12:31.285Z,939.2
2018-12-15T03:13:31.007Z,939.2
2018-12-15T03:14:30.743Z,939.2
2018-12-15T03:15:30.465Z,939.2
2018-12-15T03:16:30.191Z,939.2
2018-12-15T03:17:29.943Z,939.2
2018-12-15T03:18:29.700Z,939.2
2018-12-15T03:19:29.433Z,939.1
2018-12-15T03:20:29.171Z,939.2
2018-12-15T03:21:29.346Z,938
2018-12-15T03:22:29.094Z,939.2
2018-12-15T03:23:28.845Z,939.2
2018-12-15T03:24:28.585Z,939.2
2018-12-15T03:25:28.311Z,939.2
2018-12-15T03:26:28.049Z,939.3
2018-12-15T03:27:27.772Z,939.3
2018-12-15T03:28:27.514Z,939.2
2018-12-15T03:29:27.257Z,939.2
2018-12-15T03:30:27.003Z,939.2
2018-12-15T03:31:27.412Z,939.2
2018-12-15T03:32:27.345Z,939.3
2018-12-15T03:33:27.259Z,939.3
2018-12-15T03:34:27.153Z,939.3
2018-12-15T03:35:27.044Z,939.3
2018-12-15T03:36:26.996Z,939.2
2018-12-15T03:37:26.889Z,939.2
2018-12-15T03:38:26.805Z,939.3
2018-12-15T03:39:26.691Z,939.2
2018-12-15T03:40:26.567Z,939.3
2018-12-15T03:41:26.870Z,939.3
2018-12-15T03:42:26.743Z,939.3
2018-12-15T03:43:26.674Z,939.3
2018-12-15T03:44:26.560Z,939.3
2018-12-15T03:45:26.444Z,939
2018-12-15T03:46:26.338Z,937.4
2018-12-15T03:47:26.411Z,939.3
2018-12-15T03:48:26.293Z,939.2
2018-12-15T03:49:26.246Z,939.1
2018-12-15T03:50:26.251Z,939
2018-12-15T03:51:26.558Z,939
2018-12-15T03:52:26.474Z,939.1
2018-12-15T03:53:26.596Z,939.2
2018-12-15T03:54:26.523Z,939.2
2018-12-15T03:55:26.688Z,939.1
2018-12-15T03:56:26.591Z,939.1
2018-12-15T03:57:26.502Z,939.2
2018-12-15T03:58:26.406Z,939.1
2018-12-15T03:59:26.301Z,939.1
2018-12-15T04:00:26.239Z,939.2
2018-12-15T04:01:26.566Z,939.2
2018-12-15T04:02:26.484Z,939.3
2018-12-15T04:03:26.628Z,939.3
2018-12-15T04:04:26.542Z,939.1
2018-12-15T04:05:26.461Z,939.2
2018-12-15T04:06:26.507Z,939.3
2018-12-15T04:07:26.704Z,939.2
2018-12-15T04:08:26.614Z,939.3
2018-12-15T04:09:26.591Z,938.3
2018-12-15T04:10:26.547Z,939.4
2018-12-15T04:11:26.877Z,939.3
2018-12-15T04:12:26.786Z,939.4
2018-12-15T04:13:26.676Z,939.3
2018-12-15T04:14:26.573Z,939.3
2018-12-15T04:15:26.695Z,939.3
2018-12-15T04:16:26.612Z,939.3
2018-12-15T04:17:26.703Z,939.3
2018-12-15T04:18:26.617Z,939.3
2018-12-15T04:19:26.528Z,939.3
2018-12-15T04:20:26.427Z,939.4
2018-12-15T04:21:26.792Z,939.3
2018-12-15T04:22:26.535Z,939.3
2018-12-15T04:23:26.280Z,938.4
2018-12-15T04:24:26.007Z,939.4
2018-12-15T04:25:25.729Z,939.3
2018-12-15T04:26:25.471Z,939.1
2018-12-15T04:27:25.214Z,939.5
2018-12-15T04:28:24.946Z,939.4
2018-12-15T04:29:24.674Z,939.3
2018-12-15T04:30:24.411Z,939.5
2018-12-15T04:31:24.955Z,939.5
2018-12-15T04:32:24.864Z,939.6
2018-12-15T04:33:24.774Z,939.4
2018-12-15T04:34:24.683Z,939.5
2018-12-15T04:35:24.592Z,939.5
2018-12-15T04:36:24.559Z,939.4
2018-12-15T04:37:24.482Z,939.5
2018-12-15T04:38:24.413Z,939.4
2018-12-15T04:39:24.304Z,939.5
2018-12-15T04:40:24.183Z,939.6
2018-12-15T04:41:24.489Z,939.6
2018-12-15T04:42:24.406Z,939.6
2018-12-15T04:43:24.331Z,939.6
2018-12-15T04:44:24.216Z,939.6
2018-12-15T04:45:24.099Z,939.6
2018-12-15T04:46:23.999Z,939.6
2018-12-15T04:47:23.899Z,939.6
2018-12-15T04:48:23.785Z,939.7
2018-12-15T04:49:23.683Z,939.6
2018-12-15T04:50:23.571Z,939.5
2018-12-15T04:51:23.899Z,937.8
2018-12-15T04:52:23.789Z,939.5
2018-12-15T04:53:23.673Z,939.6
2018-12-15T04:54:23.578Z,939.6
2018-12-15T04:55:23.472Z,939.6
2018-12-15T04:56:23.345Z,939.7
2018-12-15T04:57:23.214Z,939.7
2018-12-15T04:58:23.108Z,939.5
2018-12-15T04:59:23.066Z,939.6
2018-12-15T05:00:22.955Z,939.7
2018-12-15T05:01:23.279Z,939.7
2018-12-15T05:02:23.170Z,939.7
2018-12-15T05:03:23.881Z,939.7
2018-12-15T05:04:23.805Z,939.7
2018-12-15T05:05:23.704Z,939.8
2018-12-15T05:06:23.851Z,939.8
2018-12-15T05:07:23.742Z,939.7
2018-12-15T05:08:23.639Z,939.7
2018-12-15T05:09:23.531Z,939.7
2018-12-15T05:10:23.435Z,939.7
2018-12-15T05:11:24.015Z,939.7
2018-12-15T05:12:23.915Z,939.5
2018-12-15T05:13:23.814Z,939.7
2018-12-15T05:14:23.714Z,939.7
2018-12-15T05:15:23.859Z,939.7
2018-12-15T05:16:23.789Z,939.7
2018-12-15T05:17:23.687Z,939.7
2018-12-15T05:18:23.578Z,939.7
2018-12-15T05:19:23.475Z,939.8
2018-12-15T05:20:23.369Z,939.7
2018-12-15T05:21:23.691Z,938
2018-12-15T05:22:23.585Z,939.6
2018-12-15T05:23:23.508Z,939.8
2018-12-15T05:24:23.399Z,939.8
2018-12-15T05:25:23.291Z,939.7
2018-12-15T05:26:23.184Z,939.7
2018-12-15T05:27:23.103Z,939.6
2018-12-15T05:28:23.001Z,939.6
2018-12-15T05:29:22.899Z,939.6
2018-12-15T05:30:22.801Z,939.6
2018-12-15T05:31:23.143Z,939.7
2018-12-15T05:32:22.892Z,939.7
2018-12-15T05:33:22.645Z,939.5
2018-12-15T05:34:22.402Z,939.8
2018-12-15T05:35:22.150Z,939.8
2018-12-15T05:36:21.875Z,939.7
2018-12-15T05:37:21.653Z,939.8
2018-12-15T05:38:21.391Z,939.7
2018-12-15T05:39:21.128Z,939.6
2018-12-15T05:40:20.873Z,939.7
2018-12-15T05:41:21.183Z,939.8
2018-12-15T05:42:21.082Z,939.7
2018-12-15T05:43:20.990Z,939.8
2018-12-15T05:44:20.884Z,939.7
2018-12-15T05:45:20.772Z,939.7
2018-12-15T05:46:20.666Z,939.7
2018-12-15T05:47:20.567Z,939.7
2018-12-15T05:48:26.284Z,939.8
2018-12-15T05:49:26.182Z,939.8
2018-12-15T05:50:26.080Z,939.9
2018-12-15T05:51:26.402Z,939.8
2018-12-15T05:52:26.296Z,939.8
2018-12-15T05:53:26.222Z,939.8
2018-12-15T05:54:26.163Z,939.7
2018-12-15T05:55:26.047Z,939.7
2018-12-15T05:56:25.938Z,939.8
2018-12-15T05:57:25.917Z,939.9
2018-12-15T05:58:25.806Z,939.9
2018-12-15T05:59:25.704Z,939.8
2018-12-15T06:00:25.615Z,939.8
2018-12-15T06:01:25.940Z,939.8
2018-12-15T06:02:25.668Z,939.9
2018-12-15T06:03:25.390Z,939.9
2018-12-15T06:04:25.152Z,940
2018-12-15T06:05:24.892Z,939.8
2018-12-15T06:06:24.619Z,940
2018-12-15T06:07:24.340Z,939.9
2018-12-15T06:08:24.306Z,940
2018-12-15T06:09:24.057Z,940
2018-12-15T06:10:23.805Z,940
2018-12-15T06:11:24.135Z,940.1
2018-12-15T06:12:24.042Z,940
2018-12-15T06:13:23.949Z,940
2018-12-15T06:14:23.836Z,940
2018-12-15T06:15:23.775Z,940
2018-12-15T06:16:23.667Z,940
2018-12-15T06:17:23.551Z,939.4
2018-12-15T06:18:23.448Z,940
2018-12-15T06:19:23.340Z,939.8
2018-12-15T06:20:23.247Z,939.9
2018-12-15T06:21:23.589Z,940
2018-12-15T06:22:23.509Z,940.1
2018-12-15T06:23:23.406Z,940
2018-12-15T06:24:23.143Z,940.1
2018-12-15T06:25:22.859Z,940
2018-12-15T06:26:22.603Z,940
2018-12-15T06:27:22.317Z,940.1
2018-12-15T06:28:22.049Z,940.1
2018-12-15T06:29:22.806Z,939.3
2018-12-15T06:30:22.543Z,940.1
2018-12-15T06:31:22.701Z,940
2018-12-15T06:32:22.441Z,940.1
2018-12-15T06:33:22.179Z,940
2018-12-15T06:34:21.903Z,939.9
2018-12-15T06:35:21.623Z,940.1
2018-12-15T06:36:21.367Z,940.1
2018-12-15T06:37:21.111Z,939.9
2018-12-15T06:38:20.829Z,940.1
2018-12-15T06:39:20.555Z,940.1
2018-12-15T06:40:20.277Z,940
2018-12-15T06:41:20.568Z,940.1
2018-12-15T06:42:20.502Z,940.1
2018-12-15T06:43:20.463Z,940
2018-12-15T06:44:20.376Z,940.1
2018-12-15T06:45:20.270Z,940
2018-12-15T06:46:20.175Z,940
2018-12-15T06:47:20.074Z,940.1
2018-12-15T06:48:19.977Z,940
2018-12-15T06:49:19.857Z,940
2018-12-15T06:50:19.750Z,939.9
2018-12-15T06:51:20.043Z,940
2018-12-15T06:52:19.938Z,940
2018-12-15T06:53:19.860Z,940
2018-12-15T06:54:19.757Z,940
2018-12-15T06:55:19.627Z,940.1
2018-12-15T06:56:19.533Z,940
2018-12-15T06:57:19.482Z,940.1
2018-12-15T06:58:19.377Z,940.1
2018-12-15T06:59:19.269Z,940.1
2018-12-15T07:00:19.151Z,940.1
2018-12-15T07:01:19.461Z,940.1
2018-12-15T07:02:19.339Z,940.1
2018-12-15T07:03:19.247Z,940.1
2018-12-15T07:04:19.127Z,940
2018-12-15T07:05:19.034Z,940
2018-12-15T07:06:21.830Z,940
2018-12-15T07:07:21.741Z,940.2
2018-12-15T07:08:21.656Z,940.2
2018-12-15T07:09:21.779Z,940.2
2018-12-15T07:10:21.662Z,940.2
2018-12-15T07:11:21.991Z,940.2
2018-12-15T07:12:21.876Z,940.2
2018-12-15T07:13:21.786Z,940.1
2018-12-15T07:14:21.703Z,940.1
2018-12-15T07:15:21.849Z,940.2
2018-12-15T07:16:21.736Z,940.2
2018-12-15T07:17:21.662Z,939.9
2018-12-15T07:18:21.559Z,940.1
2018-12-15T07:19:21.672Z,940.1
2018-12-15T07:20:21.574Z,940.1
2018-12-15T07:21:21.907Z,940
2018-12-15T07:22:21.789Z,940.1
2018-12-15T07:23:21.691Z,940.2
2018-12-15T07:24:21.579Z,940.2
2018-12-15T07:25:21.477Z,940.2
2018-12-15T07:26:21.367Z,940.2
2018-12-15T07:27:21.242Z,940.2
2018-12-15T07:28:21.131Z,940
2018-12-15T07:29:21.035Z,940
2018-12-15T07:30:20.947Z,940.1
2018-12-15T07:31:21.251Z,940
2018-12-15T07:32:21.136Z,940.2
2018-12-15T07:33:21.057Z,940.1
2018-12-15T07:34:20.997Z,940.1
2018-12-15T07:35:20.890Z,940.2
2018-12-15T07:36:20.811Z,940.3
2018-12-15T07:37:20.706Z,940.2
2018-12-15T07:38:20.601Z,940.2
2018-12-15T07:39:20.484Z,940.1
2018-12-15T07:40:20.373Z,940.2
2018-12-15T07:41:20.799Z,940.2
2018-12-15T07:42:20.719Z,940.1
2018-12-15T07:43:20.617Z,940.1
2018-12-15T07:44:20.527Z,940.1
2018-12-15T07:45:20.433Z,940.3
2018-12-15T07:46:20.337Z,940.1
2018-12-15T07:47:20.259Z,940.3
2018-12-15T07:48:20.161Z,940.3
2018-12-15T07:49:20.076Z,940.3
2018-12-15T07:50:19.949Z,940.3
2018-12-15T07:51:20.257Z,940.2
2018-12-15T07:52:20.149Z,940.3
2018-12-15T07:53:20.041Z,940.4
2018-12-15T07:54:19.931Z,940.4
2018-12-15T07:55:19.829Z,940.4
2018-12-15T07:56:19.721Z,940.3
2018-12-15T07:57:19.610Z,940.3
2018-12-15T07:58:19.523Z,940.4
2018-12-15T07:59:19.403Z,939.8
2018-12-15T08:00:19.309Z,940.2
2018-12-15T08:01:19.651Z,940.3
2018-12-15T08:02:19.398Z,940.5
2018-12-15T08:03:19.178Z,940.4
2018-12-15T08:04:18.918Z,940.4
2018-12-15T08:05:18.634Z,940.4
2018-12-15T08:06:18.365Z,940.4
2018-12-15T08:07:18.096Z,940.4
2018-12-15T08:08:17.828Z,940.4
2018-12-15T08:09:17.575Z,940.5
2018-12-15T08:10:17.297Z,940.3
2018-12-15T08:11:17.439Z,940.4
2018-12-15T08:12:17.155Z,940.4
2018-12-15T08:13:16.863Z,940.4
2018-12-15T08:14:25.426Z,940.3
2018-12-15T08:15:25.167Z,940.4
2018-12-15T08:16:24.899Z,940.4
2018-12-15T08:17:24.625Z,940.3
2018-12-15T08:18:24.351Z,940.4
2018-12-15T08:19:24.108Z,940.4
2018-12-15T08:20:23.832Z,940.3
2018-12-15T08:21:24.206Z,940.5
2018-12-15T08:22:27.160Z,940.5
2018-12-15T08:23:27.062Z,940.4
2018-12-15T08:24:27.002Z,940.5
2018-12-15T08:25:26.900Z,940.4
2018-12-15T08:26:26.788Z,940.4
2018-12-15T08:27:26.671Z,940.3
2018-12-15T08:28:26.560Z,940.3
2018-12-15T08:29:26.481Z,940.3
2018-12-15T08:30:26.386Z,940.4
2018-12-15T08:31:26.954Z,940.4
2018-12-15T08:32:26.864Z,940.4
2018-12-15T08:33:26.587Z,940.2
2018-12-15T08:34:26.334Z,940.3
2018-12-15T08:35:26.078Z,940.3
2018-12-15T08:36:25.802Z,940.3
2018-12-15T08:37:25.718Z,940.4
2018-12-15T08:38:25.512Z,940.3
2018-12-15T08:39:25.245Z,940.4
2018-12-15T08:40:24.986Z,940.2
2018-12-15T08:41:25.140Z,940.4
2018-12-15T08:42:24.876Z,940.3
2018-12-15T08:43:24.623Z,940.4
2018-12-15T08:44:24.375Z,940.4
2018-12-15T08:45:24.138Z,940.4
2018-12-15T08:46:23.902Z,940.2
2018-12-15T08:47:23.645Z,940.4
2018-12-15T08:48:23.391Z,940.2
2018-12-15T08:49:23.127Z,940.4
2018-12-15T08:50:22.860Z,940.3
2018-12-15T08:51:23.030Z,940.4
2018-12-15T08:52:22.766Z,940.4
2018-12-15T08:53:22.725Z,940.4
2018-12-15T08:54:22.449Z,940.4
2018-12-15T08:55:22.164Z,940.4
2018-12-15T08:56:21.919Z,940.4
2018-12-15T08:57:21.639Z,940.5
2018-12-15T08:58:21.381Z,940.5
2018-12-15T08:59:21.123Z,940.3
2018-12-15T09:00:20.850Z,940.5
2018-12-15T09:01:21.141Z,940.3
2018-12-15T09:02:21.082Z,940.5
2018-12-15T09:03:20.962Z,940.4
2018-12-15T09:04:20.847Z,940.5
2018-12-15T09:05:20.718Z,940.5
2018-12-15T09:06:20.605Z,940.5
2018-12-15T09:07:20.510Z,940.5
2018-12-15T09:08:20.401Z,940.6
2018-12-15T09:09:20.279Z,940.5
2018-12-15T09:10:20.170Z,940.4
2018-12-15T09:11:20.517Z,940.6
2018-12-15T09:12:20.451Z,940.5
2018-12-15T09:13:20.333Z,940.5
2018-12-15T09:14:20.207Z,940.6
2018-12-15T09:15:20.091Z,940.4
2018-12-15T09:16:27.106Z,940.5
2018-12-15T09:17:27.017Z,940.4
2018-12-15T09:18:26.924Z,940.4
2018-12-15T09:19:26.813Z,940.4
2018-12-15T09:20:26.696Z,940.5
2018-12-15T09:21:27.224Z,939.6
2018-12-15T09:22:27.161Z,940.5
2018-12-15T09:23:27.045Z,940.4
2018-12-15T09:24:26.953Z,940.5
2018-12-15T09:25:26.865Z,940.5
2018-12-15T09:26:26.760Z,940.5
2018-12-15T09:27:26.664Z,940.4
2018-12-15T09:28:26.578Z,940.4
2018-12-15T09:29:26.484Z,940.4
2018-12-15T09:30:26.603Z,940.5
2018-12-15T09:31:26.951Z,940.4
2018-12-15T09:32:26.875Z,938.5
2018-12-15T09:33:26.756Z,940.3
2018-12-15T09:34:26.668Z,940.2
2018-12-15T09:35:26.559Z,940.3
2018-12-15T09:36:26.451Z,940.3
2018-12-15T09:37:26.361Z,940.3
2018-12-15T09:38:26.273Z,940.3
2018-12-15T09:39:26.202Z,939.5
2018-12-15T09:40:26.087Z,940.3
2018-12-15T09:41:26.627Z,940.2
2018-12-15T09:42:26.349Z,940.3
2018-12-15T09:43:26.075Z,940.3
2018-12-15T09:44:25.823Z,940.1
2018-12-15T09:45:25.569Z,940.3
2018-12-15T09:46:25.306Z,940.3
2018-12-15T09:47:25.040Z,940.3
2018-12-15T09:48:24.765Z,940.2
2018-12-15T09:49:24.498Z,940.2
2018-12-15T09:50:24.481Z,940.3
2018-12-15T09:51:24.825Z,940.2
2018-12-15T09:52:24.712Z,940.2
2018-12-15T09:53:24.674Z,940.3
2018-12-15T09:54:24.551Z,940.1
2018-12-15T09:55:24.435Z,940.2
2018-12-15T09:56:24.329Z,940.2
2018-12-15T09:57:24.223Z,940.3
2018-12-15T09:58:24.138Z,940.2
2018-12-15T09:59:24.024Z,940.2
2018-12-15T10:00:23.949Z,940.2
2018-12-15T10:01:24.279Z,940
2018-12-15T10:02:24.001Z,938.4
2018-12-15T10:03:23.723Z,940.1
2018-12-15T10:04:23.456Z,940.2
2018-12-15T10:05:23.191Z,940
2018-12-15T10:06:22.917Z,940.1
2018-12-15T10:07:22.659Z,940
2018-12-15T10:08:22.385Z,939.9
2018-12-15T10:09:22.123Z,940
2018-12-15T10:10:21.847Z,940
2018-12-15T10:11:22.191Z,940
2018-12-15T10:12:22.100Z,940.1
2018-12-15T10:13:21.981Z,940.1
2018-12-15T10:14:21.887Z,940
2018-12-15T10:15:21.771Z,940
2018-12-15T10:16:21.657Z,940
2018-12-15T10:17:21.588Z,940
2018-12-15T10:18:21.507Z,940
2018-12-15T10:19:25.287Z,940
2018-12-15T10:20:25.195Z,940
2018-12-15T10:21:25.514Z,940
2018-12-15T10:22:25.398Z,939.9
2018-12-15T10:23:25.310Z,940
2018-12-15T10:24:25.223Z,940
2018-12-15T10:25:25.337Z,940
2018-12-15T10:26:25.448Z,940
2018-12-15T10:27:25.519Z,939.8
2018-12-15T10:28:25.409Z,939.9
2018-12-15T10:29:25.329Z,939.9
2018-12-15T10:30:25.220Z,939.2
2018-12-15T10:31:25.516Z,939.8
2018-12-15T10:32:25.401Z,939.8
2018-12-15T10:33:25.131Z,938.1
2018-12-15T10:34:24.888Z,939.7
2018-12-15T10:35:24.610Z,939.6
2018-12-15T10:36:24.329Z,938.2
2018-12-15T10:37:24.058Z,939.7
2018-12-15T10:38:23.786Z,939.7
2018-12-15T10:39:23.535Z,939.7
2018-12-15T10:40:23.255Z,939.6
2018-12-15T10:41:23.572Z,939.7
2018-12-15T10:42:23.532Z,939.4
2018-12-15T10:43:23.416Z,939.6
2018-12-15T10:44:23.307Z,939.6
2018-12-15T10:45:23.195Z,939.6
2018-12-15T10:46:23.106Z,939.6
2018-12-15T10:47:22.992Z,939.5
2018-12-15T10:48:22.882Z,939.5
2018-12-15T10:49:22.781Z,939.4
2018-12-15T10:50:22.723Z,939.6
2018-12-15T10:51:23.055Z,939.6
2018-12-15T10:52:22.946Z,939.5
2018-12-15T10:53:22.836Z,939.6
2018-12-15T10:54:22.724Z,939.5
2018-12-15T10:55:22.604Z,938.5
2018-12-15T10:56:22.532Z,939.5
2018-12-15T10:57:22.425Z,938.7
2018-12-15T10:58:22.298Z,939.4
2018-12-15T10:59:22.206Z,939.4
2018-12-15T11:00:22.100Z,939.5
2018-12-15T11:01:22.456Z,939.4
2018-12-15T11:02:22.368Z,939.5
2018-12-15T11:03:22.249Z,939.4
2018-12-15T11:04:22.139Z,939.4
2018-12-15T11:05:22.018Z,939.5
2018-12-15T11:06:21.924Z,939.6
2018-12-15T11:07:21.814Z,939.5
2018-12-15T11:08:21.701Z,939.5
2018-12-15T11:09:21.600Z,939.6
2018-12-15T11:10:21.480Z,939.5
2018-12-15T11:11:21.834Z,939.5
2018-12-15T11:12:21.719Z,939.5
2018-12-15T11:13:21.620Z,939.4
2018-12-15T11:14:21.500Z,939.3
2018-12-15T11:15:21.462Z,939.5
2018-12-15T11:16:21.374Z,939.5
2018-12-15T11:17:21.256Z,939.5
2018-12-15T11:18:21.136Z,939.5
2018-12-15T11:19:21.031Z,938.3
2018-12-15T11:20:20.918Z,939.3
2018-12-15T11:21:21.243Z,939.3
2018-12-15T11:22:21.158Z,939.3
2018-12-15T11:23:21.049Z,939.5
2018-12-15T11:24:20.925Z,939.5
2018-12-15T11:25:20.809Z,939.4
2018-12-15T11:26:20.687Z,939.4
2018-12-15T11:27:20.573Z,939.4
2018-12-15T11:28:20.555Z,939.2
2018-12-15T11:29:20.432Z,939.4
2018-12-15T11:30:20.317Z,939.4
2018-12-15T11:31:20.657Z,939.4
2018-12-15T11:32:20.555Z,939.3
2018-12-15T11:33:20.469Z,939.3
2018-12-15T11:34:20.387Z,939.3
2018-12-15T11:35:20.301Z,939.2
2018-12-15T11:36:20.195Z,939.3
2018-12-15T11:37:20.087Z,939.3
2018-12-15T11:38:20.001Z,939.4
2018-12-15T11:39:19.883Z,939.4
2018-12-15T11:40:19.801Z,939.3
2018-12-15T11:41:20.107Z,939.3
2018-12-15T11:42:19.993Z,939.3
2018-12-15T11:43:19.878Z,939.2
2018-12-15T11:44:19.801Z,939.3
2018-12-15T11:45:19.690Z,939.1
2018-12-15T11:46:19.586Z,939.2
2018-12-15T11:47:19.495Z,939.2
2018-12-15T11:48:19.392Z,939.1
2018-12-15T11:49:19.275Z,938.7
2018-12-15T11:50:19.186Z,939.1
2018-12-15T11:51:19.497Z,939.1
2018-12-15T11:52:19.399Z,939.1
2018-12-15T11:53:19.279Z,939.1
2018-12-15T11:54:19.171Z,939.1
2018-12-15T11:55:19.083Z,939.1
2018-12-15T11:56:19.002Z,938.9
2018-12-15T11:57:18.926Z,939.1
2018-12-15T11:58:18.835Z,939.1
2018-12-15T11:59:18.726Z,938.9
2018-12-15T12:00:18.613Z,939
2018-12-15T12:01:19.932Z,939
2018-12-15T12:02:19.795Z,939
2018-12-15T12:03:19.688Z,939
2018-12-15T12:04:19.592Z,938.9
2018-12-15T12:05:19.484Z,938.8
2018-12-15T12:06:19.435Z,938.9
2018-12-15T12:07:19.335Z,938.9
2018-12-15T12:08:19.217Z,939
2018-12-15T12:09:19.108Z,938.9
2018-12-15T12:10:18.986Z,938.9
2018-12-15T12:11:19.283Z,938.9
2018-12-15T12:12:19.212Z,938.9
2018-12-15T12:13:19.099Z,938.8
2018-12-15T12:14:19.002Z,938.9
2018-12-15T12:15:18.886Z,938.8
2018-12-15T12:16:18.766Z,938.8
2018-12-15T12:17:18.659Z,938.8
2018-12-15T12:18:18.567Z,938.9
2018-12-15T12:19:18.457Z,938.5
2018-12-15T12:20:18.413Z,938.8
2018-12-15T12:21:18.732Z,938.8
2018-12-15T12:22:18.640Z,938.8
2018-12-15T12:23:18.542Z,938.7
2018-12-15T12:24:18.440Z,938.8
2018-12-15T12:25:18.340Z,938.7
2018-12-15T12:26:18.231Z,938.7
2018-12-15T12:27:18.125Z,938.7
2018-12-15T12:28:18.040Z,938.7
2018-12-15T12:29:17.927Z,938.7
2018-12-15T12:30:17.829Z,938.5
2018-12-15T12:31:18.149Z,938.8
2018-12-15T12:32:18.058Z,938.7
2018-12-15T12:33:17.787Z,938.8
2018-12-15T12:34:17.526Z,938.8
2018-12-15T12:35:17.239Z,938.7
2018-12-15T12:36:16.962Z,938.8
2018-12-15T12:37:16.685Z,938.7
2018-12-15T12:38:16.418Z,938.6
2018-12-15T12:39:16.132Z,938.1
2018-12-15T12:40:15.871Z,938.7
2018-12-15T12:41:16.198Z,938.7
2018-12-15T12:42:16.120Z,938.7
2018-12-15T12:43:15.998Z,938.6
2018-12-15T12:44:15.878Z,938.7
2018-12-15T12:45:15.784Z,938.7
2018-12-15T12:46:15.676Z,938.6
2018-12-15T12:47:18.550Z,938.7
2018-12-15T12:48:18.448Z,938.5
2018-12-15T12:49:18.355Z,938.7
2018-12-15T12:50:18.294Z,938.6
2018-12-15T12:51:18.618Z,938.6
2018-12-15T12:52:18.519Z,938.7
2018-12-15T12:53:18.422Z,938.6
2018-12-15T12:54:18.298Z,938.6
2018-12-15T12:55:18.195Z,938.6
2018-12-15T12:56:18.103Z,938.6
2018-12-15T12:57:17.996Z,938.5
2018-12-15T12:58:17.890Z,937.8